Brule, NE

9:39 PM MDT on May 22, 2015 (GMT -0600)
Searle | | Change Station
CLOSE
Current Station
Airport
Location: Ogallala,
Elevation: 3278 ft
Nearby Weather Stations
Active Advisory: Flood Warning Active Notice: Public Information Statement

Elev 3278 ft 41.12 °N, 101.77 °W | Updated 24 minutes ago

Overcast
Overcast
47 °F
Feels Like 47 °F
N
9
Wind Variable Wind from East

Today
High -- | Low -- °F
--% Chance of Precip.
Yesterday
High -- | Low -- °F
Precip. -- in
5:23 AM 8:05 PM
Waxing Crescent, 26% visible
Pressure 30.08 in
Visibility 2.0 miles
Clouds Overcast 300 ft
Dew Point 47 °F
Humidity 98%
Rainfall 0.60 in
Snow Depth Not available.
UV 0 out of 12
Pollen 4.30 out of 12
Air Quality Not available.
Flu Activity No Activity
METAR KOGA 230315Z AUTO 09008KT 2SM DZ OVC003 09/08 A3008 RMK AO2 T00850082

More Conditions Fewer Conditions

Pressure 30.08 in
Visibility 2.0 miles
Clouds Overcast 300 ft
Dew Point 47 °F
Humidity 98%
Rainfall 0.60 in
Snow Depth Not available.
UV 0 out of 12
Pollen 4.30 out of 12
Air Quality Not available.
Flu Activity No Activity
METAR KOGA 230315Z AUTO 09008KT 2SM DZ OVC003 09/08 A3008 RMK AO2 T00850082

More Conditions Fewer Conditions

Nowcast | as of 9:32 PM CDT on May 22, 2015

Widespread light rain continued north of a line from Ogallala to North Platte to Broken Bow to Bartlett and south of a line from Ellsworth to Thedford to Valentine. The heaviest rain was over north central Nebraska from Ainsworth to Oneill. Hourly rainfall rates around 5 hundredths of an inch are possible.

×

10-Day Weather Forecast

Almanac

Astronomy

May. 22, 2015 Rise Set
Actual Time
Civil Twilight
Nautical Twilight
Astronomical Twilight
Moon
Length of Visible Light
Length of Day
Tomorrow will be .
, % of the Moon is Illuminated

Today's Extremes

State Highs State Lows

Community

WunderPhotos

Upload Photos

1,823,381 photos uploaded!

WunderBlogs® & News

Nearby

Air Quality

  Air Quality AQ Index Pollutant
Not available.

Snow Depth

Station Depth Elevation

Earthquake Activity

City Distance Mag. Time & Date
Minimum magnitude displayed is 2.5.

Coastal Water Temperatures

Place Temperature

Stations

Nearby Weather Stations

Station Location Temp. Windchill Dew Point Humidity Wind Precip. Elev Updated Type
                   
Flood Warning
Statement as of 12:08 PM MDT on May 22, 2015

The Flood Warning continues for
the South Platte river near Roscoe.
* Until futher notice.
* At 9:30 am on Friday may 22 the stage was 9.5 feet.
* Flood stage is 9.0 feet.
* Forecast is for the river to remain nearly steady today then slowly
fall to near 9.2 feet over the weekend, then rise back up to
around 10.1 feet by the middle of next week.
* Impact... at 10.0 feet... water reaches the gage house floor.


Lat... Lon 4100 10226 4116 10173 4115 10127 4109 10127
      4109 10173 4100 10213